Otis, Kansas
Current Conditions -  °F | °C
As of 2:15 PM on Saturday 20 Dec 2014 (Local Time) from KGBD Reporting Station
Clear Clear  
Wind Chill:   Ceiling: Unl
Heat Index:   Visibility: 9mi
Dew Point:   Wind: 14mph
Humidity: 76%   Direction: 190°S
Pressure: 30.03"   Gusts: NA
Location:  38.53°N, 99.05°W
Report Text: KGBD 202015Z AUTO 19012KT 9SM CLR 09/05 A3003 RMK AO1
Loading
Personal Weather Stations






























Interactive Weather Map New forecast layout! Learn more

10-Day Weather Forecast

Advertisements
Track Severe Weather on mobile